sensor_id;sensor_type;location;lat;lon;timestamp;pressure;altitude;pressure_sealevel;temperature;humidity
35704;BME280;21820;51.112;13.762;2023-02-02T00:01:08;99026.28;;;20.88;57.32
35704;BME280;21820;51.112;13.762;2023-02-02T00:03:33;99028.06;;;20.88;59.16
35704;BME280;21820;51.112;13.762;2023-02-02T00:05:59;99007.53;;;20.75;57.70
35704;BME280;21820;51.112;13.762;2023-02-02T00:08:24;99023.97;;;20.85;57.74
35704;BME280;21820;51.112;13.762;2023-02-02T00:10:50;99020.22;;;20.88;58.21
35704;BME280;21820;51.112;13.762;2023-02-02T00:13:15;99024.81;;;20.86;57.15
35704;BME280;21820;51.112;13.762;2023-02-02T00:15:41;99006.28;;;20.79;58.75
35704;BME280;21820;51.112;13.762;2023-02-02T00:18:06;99030.53;;;20.89;59.19
35704;BME280;21820;51.112;13.762;2023-02-02T00:20:32;99023.66;;;20.88;59.50
35704;BME280;21820;51.112;13.762;2023-02-02T00:23:01;99028.75;;;20.90;59.37
35704;BME280;21820;51.112;13.762;2023-02-02T00:25:27;99026.13;;;20.90;57.61
35704;BME280;21820;51.112;13.762;2023-02-02T00:27:52;99021.88;;;20.89;59.67
35704;BME280;21820;51.112;13.762;2023-02-02T00:30:17;99009.50;;;20.91;57.26
35704;BME280;21820;51.112;13.762;2023-02-02T00:32:43;99018.59;;;20.87;57.61
35704;BME280;21820;51.112;13.762;2023-02-02T00:35:08;99016.66;;;20.89;59.39
35704;BME280;21820;51.112;13.762;2023-02-02T00:37:34;99029.56;;;20.90;59.31
35704;BME280;21820;51.112;13.762;2023-02-02T00:39:59;99009.50;;;20.91;58.84
35704;BME280;21820;51.112;13.762;2023-02-02T00:42:25;99017.19;;;20.92;59.72
35704;BME280;21820;51.112;13.762;2023-02-02T00:44:50;99008.06;;;20.96;59.39
35704;BME280;21820;51.112;13.762;2023-02-02T00:47:34;99018.91;;;21.01;59.54
35704;BME280;21820;51.112;13.762;2023-02-02T00:49:59;98995.47;;;20.92;59.68
35704;BME280;21820;51.112;13.762;2023-02-02T00:52:25;99018.63;;;21.04;58.48
35704;BME280;21820;51.112;13.762;2023-02-02T00:54:50;99008.47;;;21.01;59.45
35704;BME280;21820;51.112;13.762;2023-02-02T00:57:15;99020.28;;;21.05;59.42
35704;BME280;21820;51.112;13.762;2023-02-02T00:59:41;99019.97;;;21.08;59.46
35704;BME280;21820;51.112;13.762;2023-02-02T01:02:09;99013.13;;;21.07;58.60
35704;BME280;21820;51.112;13.762;2023-02-02T01:04:34;99007.38;;;21.04;58.80
35704;BME280;21820;51.112;13.762;2023-02-02T01:06:59;99009.66;;;21.07;58.80
35704;BME280;21820;51.112;13.762;2023-02-02T01:09:25;99009.53;;;21.08;58.99
35704;BME280;21820;51.112;13.762;2023-02-02T01:11:50;99018.19;;;21.09;58.89
35704;BME280;21820;51.112;13.762;2023-02-02T01:14:15;99009.38;;;21.10;59.57
35704;BME280;21820;51.112;13.762;2023-02-02T01:16:41;98997.19;;;21.01;59.07
35704;BME280;21820;51.112;13.762;2023-02-02T01:19:06;99013.81;;;21.17;58.02
35704;BME280;21820;51.112;13.762;2023-02-02T01:21:31;99013.34;;;21.14;58.44
35704;BME280;21820;51.112;13.762;2023-02-02T01:23:57;99016.59;;;21.16;58.74
35704;BME280;21820;51.112;13.762;2023-02-02T01:26:22;99019.34;;;21.14;58.65
35704;BME280;21820;51.112;13.762;2023-02-02T01:28:48;99022.66;;;21.16;58.29
35704;BME280;21820;51.112;13.762;2023-02-02T01:31:16;99012.66;;;21.12;59.59
35704;BME280;21820;51.112;13.762;2023-02-02T01:33:43;99019.34;;;21.14;58.78
35704;BME280;21820;51.112;13.762;2023-02-02T01:36:13;99008.91;;;21.14;59.08
35704;BME280;21820;51.112;13.762;2023-02-02T01:38:39;99008.59;;;21.17;59.35
35704;BME280;21820;51.112;13.762;2023-02-02T01:41:05;99013.81;;;21.17;58.46
35704;BME280;21820;51.112;13.762;2023-02-02T01:46:09;99000.31;;;21.22;59.46
35704;BME280;21820;51.112;13.762;2023-02-02T01:48:35;98994.56;;;21.18;58.55
35704;BME280;21820;51.112;13.762;2023-02-02T01:51:04;98985.44;;;21.22;59.18
35704;BME280;21820;51.112;13.762;2023-02-02T01:53:31;98997.41;;;21.25;58.32
35704;BME280;21820;51.112;13.762;2023-02-02T01:55:57;98986.47;;;21.29;59.14
35704;BME280;21820;51.112;13.762;2023-02-02T01:58:27;98981.88;;;21.23;58.40
35704;BME280;21820;51.112;13.762;2023-02-02T02:00:53;98996.56;;;21.24;58.91
35704;BME280;21820;51.112;13.762;2023-02-02T02:03:21;98998.88;;;21.27;58.51
35704;BME280;21820;51.112;13.762;2023-02-02T02:06:08;98996.56;;;21.24;58.37
35704;BME280;21820;51.112;13.762;2023-02-02T02:08:38;99001.66;;;21.26;58.95
35704;BME280;21820;51.112;13.762;2023-02-02T02:11:04;99001.13;;;21.22;57.87
35704;BME280;21820;51.112;13.762;2023-02-02T02:13:31;98995.25;;;21.20;58.01
35704;BME280;21820;51.112;13.762;2023-02-02T02:16:49;98983.38;;;21.08;59.25
35704;BME280;21820;51.112;13.762;2023-02-02T02:19:57;99009.28;;;21.19;58.72
35704;BME280;21820;51.112;13.762;2023-02-02T02:42:45;99011.31;;;20.63;56.97
35704;BME280;21820;51.112;13.762;2023-02-02T02:45:12;99015.88;;;20.61;56.58
35704;BME280;21820;51.112;13.762;2023-02-02T02:47:39;98980.22;;;20.52;56.12
35704;BME280;21820;51.112;13.762;2023-02-02T02:50:05;98998.34;;;20.71;56.45
35704;BME280;21820;51.112;13.762;2023-02-02T02:52:32;99013.00;;;20.82;55.99
35704;BME280;21820;51.112;13.762;2023-02-02T02:54:58;99007.38;;;20.94;55.32
35704;BME280;21820;51.112;13.762;2023-02-02T03:03:33;99009.94;;;21.21;54.93
35704;BME280;21820;51.112;13.762;2023-02-02T03:06:09;99006.34;;;21.22;54.49
35704;BME280;21820;51.112;13.762;2023-02-02T03:08:43;99016.66;;;21.24;54.45
35704;BME280;21820;51.112;13.762;2023-02-02T03:11:12;99018.09;;;21.18;55.10
35704;BME280;21820;51.112;13.762;2023-02-02T03:13:39;99017.44;;;21.16;55.00
35704;BME280;21820;51.112;13.762;2023-02-02T03:16:05;99017.06;;;21.11;54.81
35704;BME280;21820;51.112;13.762;2023-02-02T03:18:31;99018.34;;;21.07;54.82
35704;BME280;21820;51.112;13.762;2023-02-02T03:20:57;99007.50;;;21.02;55.33
35704;BME280;21820;51.112;13.762;2023-02-02T03:23:23;99039.97;;;21.00;55.44
35704;BME280;21820;51.112;13.762;2023-02-02T03:25:49;99004.69;;;20.86;55.77
35704;BME280;21820;51.112;13.762;2023-02-02T03:28:16;99017.34;;;20.91;55.54
35704;BME280;21820;51.112;13.762;2023-02-02T03:30:42;99014.19;;;20.87;55.65
35704;BME280;21820;51.112;13.762;2023-02-02T03:33:09;99025.22;;;20.81;56.07
35704;BME280;21820;51.112;13.762;2023-02-02T03:35:35;99023.59;;;20.80;56.56
35704;BME280;21820;51.112;13.762;2023-02-02T03:38:01;99031.88;;;20.76;56.18
35704;BME280;21820;51.112;13.762;2023-02-02T03:40:28;99027.09;;;20.71;56.01
35704;BME280;21820;51.112;13.762;2023-02-02T03:42:54;99040.44;;;20.68;56.75
35704;BME280;21820;51.112;13.762;2023-02-02T03:45:19;99039.09;;;20.64;57.07
35704;BME280;21820;51.112;13.762;2023-02-02T03:47:45;99037.03;;;20.67;58.46
35704;BME280;21820;51.112;13.762;2023-02-02T03:50:11;99024.63;;;20.69;58.46
35704;BME280;21820;51.112;13.762;2023-02-02T03:52:36;99029.41;;;20.74;57.75
35704;BME280;21820;51.112;13.762;2023-02-02T03:55:02;99035.59;;;20.73;57.63
35704;BME280;21820;51.112;13.762;2023-02-02T03:57:27;99023.81;;;20.69;59.61
35704;BME280;21820;51.112;13.762;2023-02-02T03:59:52;99050.16;;;20.76;59.02
35704;BME280;21820;51.112;13.762;2023-02-02T04:02:18;99047.09;;;20.80;59.52
35704;BME280;21820;51.112;13.762;2023-02-02T04:04:43;99035.69;;;20.81;59.32
35704;BME280;21820;51.112;13.762;2023-02-02T04:07:09;99045.03;;;20.84;58.77
35704;BME280;21820;51.112;13.762;2023-02-02T04:09:34;99054.94;;;20.80;58.83
35704;BME280;21820;51.112;13.762;2023-02-02T04:11:59;99061.66;;;20.83;58.99
35704;BME280;21820;51.112;13.762;2023-02-02T04:14:25;99054.50;;;20.85;59.24
35704;BME280;21820;51.112;13.762;2023-02-02T04:16:50;99048.81;;;20.89;59.35
35704;BME280;21820;51.112;13.762;2023-02-02T04:19:15;99063.53;;;20.90;57.86
35704;BME280;21820;51.112;13.762;2023-02-02T04:21:41;99070.41;;;20.91;58.72
35704;BME280;21820;51.112;13.762;2023-02-02T04:24:09;99082.50;;;20.92;59.76
35704;BME280;21820;51.112;13.762;2023-02-02T04:26:35;99058.88;;;20.84;59.18
35704;BME280;21820;51.112;13.762;2023-02-02T04:29:00;99070.66;;;20.98;58.54
35704;BME280;21820;51.112;13.762;2023-02-02T04:31:26;99075.88;;;20.98;59.12
35704;BME280;21820;51.112;13.762;2023-02-02T04:33:52;99076.00;;;20.96;58.72
35704;BME280;21820;51.112;13.762;2023-02-02T04:36:17;99082.47;;;20.74;56.64
35704;BME280;21820;51.112;13.762;2023-02-02T04:38:43;99054.69;;;20.56;56.41
35704;BME280;21820;51.112;13.762;2023-02-02T04:41:10;99073.22;;;20.80;56.21
35704;BME280;21820;51.112;13.762;2023-02-02T04:43:36;99069.94;;;21.05;55.57
35704;BME280;21820;51.112;13.762;2023-02-02T04:46:02;99065.53;;;21.23;54.81
35704;BME280;21820;51.112;13.762;2023-02-02T04:48:28;99052.44;;;21.41;54.24
35704;BME280;21820;51.112;13.762;2023-02-02T04:51:00;99075.09;;;21.75;53.49
35704;BME280;21820;51.112;13.762;2023-02-02T04:53:27;99083.78;;;22.02;52.66
35704;BME280;21820;51.112;13.762;2023-02-02T04:55:52;99081.31;;;22.26;51.83
35704;BME280;21820;51.112;13.762;2023-02-02T04:58:17;99081.91;;;22.45;51.39
35704;BME280;21820;51.112;13.762;2023-02-02T05:00:43;99087.03;;;22.55;50.57
35704;BME280;21820;51.112;13.762;2023-02-02T05:03:09;99099.53;;;22.69;51.02
35704;BME280;21820;51.112;13.762;2023-02-02T05:05:34;99093.81;;;22.73;50.84
35704;BME280;21820;51.112;13.762;2023-02-02T05:07:59;99094.50;;;22.83;50.34
35704;BME280;21820;51.112;13.762;2023-02-02T05:10:25;99093.69;;;22.83;50.16
35704;BME280;21820;51.112;13.762;2023-02-02T05:12:53;99096.31;;;22.83;50.21
35704;BME280;21820;51.112;13.762;2023-02-02T05:15:19;99096.31;;;22.83;49.96
35704;BME280;21820;51.112;13.762;2023-02-02T05:17:48;99089.44;;;22.82;50.06
35704;BME280;21820;51.112;13.762;2023-02-02T05:20:14;99101.56;;;22.91;49.96
35704;BME280;21820;51.112;13.762;2023-02-02T05:22:41;99099.44;;;22.86;50.39
35704;BME280;21820;51.112;13.762;2023-02-02T05:25:07;99113.03;;;22.90;50.22
35704;BME280;21820;51.112;13.762;2023-02-02T05:27:33;99124.47;;;22.81;50.23
35704;BME280;21820;51.112;13.762;2023-02-02T05:29:59;99111.66;;;22.70;51.08
35704;BME280;21820;51.112;13.762;2023-02-02T05:32:24;99123.81;;;22.71;50.85
35704;BME280;21820;51.112;13.762;2023-02-02T05:34:50;99123.44;;;22.66;50.60
35704;BME280;21820;51.112;13.762;2023-02-02T05:37:15;99128.78;;;22.56;51.47
35704;BME280;21820;51.112;13.762;2023-02-02T05:39:41;99133.13;;;22.48;51.38
35704;BME280;21820;51.112;13.762;2023-02-02T05:42:06;99137.69;;;22.38;51.80
35704;BME280;21820;51.112;13.762;2023-02-02T05:44:32;99127.09;;;22.22;51.50
35704;BME280;21820;51.112;13.762;2023-02-02T05:46:57;99144.31;;;22.24;52.29
35704;BME280;21820;51.112;13.762;2023-02-02T05:49:22;99148.00;;;22.14;52.17
35704;BME280;21820;51.112;13.762;2023-02-02T05:51:51;99155.50;;;22.09;52.78
35704;BME280;21820;51.112;13.762;2023-02-02T05:54:17;99157.38;;;21.98;52.36
35704;BME280;21820;51.112;13.762;2023-02-02T05:56:47;99155.53;;;21.91;53.00
35704;BME280;21820;51.112;13.762;2023-02-02T05:59:13;99163.03;;;21.86;53.02
35704;BME280;21820;51.112;13.762;2023-02-02T06:01:38;99172.59;;;21.77;53.29
35704;BME280;21820;51.112;13.762;2023-02-02T06:04:03;99166.75;;;21.66;53.25
35704;BME280;21820;51.112;13.762;2023-02-02T06:06:29;99164.28;;;21.64;54.04
35704;BME280;21820;51.112;13.762;2023-02-02T06:08:54;99177.28;;;21.56;53.91
35704;BME280;21820;51.112;13.762;2023-02-02T06:11:19;99177.06;;;21.50;54.10
35704;BME280;21820;51.112;13.762;2023-02-02T06:13:45;99185.34;;;21.45;54.43
35704;BME280;21820;51.112;13.762;2023-02-02T06:16:10;99186.78;;;21.40;54.34
35704;BME280;21820;51.112;13.762;2023-02-02T06:18:36;99204.03;;;21.33;54.89
35704;BME280;21820;51.112;13.762;2023-02-02T06:21:03;99200.88;;;21.29;55.25
35704;BME280;21820;51.112;13.762;2023-02-02T06:23:30;99198.72;;;21.25;54.97
35704;BME280;21820;51.112;13.762;2023-02-02T06:25:55;99198.78;;;21.15;55.26
35704;BME280;21820;51.112;13.762;2023-02-02T06:28:21;99184.41;;;21.02;55.12
35704;BME280;21820;51.112;13.762;2023-02-02T06:30:46;99201.81;;;21.11;54.92
35704;BME280;21820;51.112;13.762;2023-02-02T06:33:11;99208.31;;;21.07;55.07
35704;BME280;21820;51.112;13.762;2023-02-02T06:35:37;99212.03;;;21.04;55.48
35704;BME280;21820;51.112;13.762;2023-02-02T06:38:02;99216.19;;;20.97;55.67
35704;BME280;21820;51.112;13.762;2023-02-02T06:40:27;99228.84;;;20.92;55.89
35704;BME280;21820;51.112;13.762;2023-02-02T06:43:01;99211.50;;;20.91;55.46
35704;BME280;21820;51.112;13.762;2023-02-02T06:45:27;99225.53;;;20.90;55.36
35704;BME280;21820;51.112;13.762;2023-02-02T06:47:53;99223.88;;;20.89;55.46
35704;BME280;21820;51.112;13.762;2023-02-02T06:50:19;99223.31;;;20.95;55.43
35704;BME280;21820;51.112;13.762;2023-02-02T06:52:51;99207.09;;;20.92;55.46
35704;BME280;21820;51.112;13.762;2023-02-02T06:55:17;99232.38;;;21.10;54.78
35704;BME280;21820;51.112;13.762;2023-02-02T06:57:43;99246.63;;;21.16;54.83
35704;BME280;21820;51.112;13.762;2023-02-02T07:00:09;99241.38;;;21.25;54.92
35704;BME280;21820;51.112;13.762;2023-02-02T07:02:35;99237.19;;;21.32;54.82
35704;BME280;21820;51.112;13.762;2023-02-02T07:05:01;99242.16;;;21.35;54.65
35704;BME280;21820;51.112;13.762;2023-02-02T07:07:30;99244.16;;;21.41;54.49
35704;BME280;21820;51.112;13.762;2023-02-02T07:09:55;99244.25;;;21.49;54.34
35704;BME280;21820;51.112;13.762;2023-02-02T07:12:20;99247.38;;;21.53;53.86
35704;BME280;21820;51.112;13.762;2023-02-02T07:14:48;99257.69;;;21.54;53.72
35704;BME280;21820;51.112;13.762;2023-02-02T07:17:13;99259.63;;;21.52;53.59
35704;BME280;21820;51.112;13.762;2023-02-02T07:19:39;99258.78;;;21.61;53.29
35704;BME280;21820;51.112;13.762;2023-02-02T07:22:04;99240.94;;;21.47;53.59
35704;BME280;21820;51.112;13.762;2023-02-02T07:24:29;99259.72;;;21.60;53.91
35704;BME280;21820;51.112;13.762;2023-02-02T07:26:55;99260.69;;;21.59;53.83
35704;BME280;21820;51.112;13.762;2023-02-02T07:29:21;99248.34;;;21.52;53.97
35704;BME280;21820;51.112;13.762;2023-02-02T07:31:47;99270.41;;;21.67;53.32
35704;BME280;21820;51.112;13.762;2023-02-02T07:34:12;99271.63;;;21.72;53.08
35704;BME280;21820;51.112;13.762;2023-02-02T07:36:38;99285.38;;;21.74;53.09
35704;BME280;21820;51.112;13.762;2023-02-02T07:39:04;99276.72;;;21.74;53.27
35704;BME280;21820;51.112;13.762;2023-02-02T07:41:30;99284.41;;;21.75;53.16
35704;BME280;21820;51.112;13.762;2023-02-02T07:43:56;99283.19;;;21.79;53.49
35704;BME280;21820;51.112;13.762;2023-02-02T07:46:21;99279.28;;;21.83;53.27
35704;BME280;21820;51.112;13.762;2023-02-02T07:48:47;99285.88;;;21.87;53.19
35704;BME280;21820;51.112;13.762;2023-02-02T07:51:15;99286.97;;;21.85;52.82
35704;BME280;21820;51.112;13.762;2023-02-02T07:53:45;99296.88;;;21.91;53.22
35704;BME280;21820;51.112;13.762;2023-02-02T07:56:12;99302.91;;;21.91;52.58
35704;BME280;21820;51.112;13.762;2023-02-02T07:58:38;99297.69;;;21.91;52.92
35704;BME280;21820;51.112;13.762;2023-02-02T08:01:05;99306.81;;;21.87;53.25
35704;BME280;21820;51.112;13.762;2023-02-02T08:03:32;99307.81;;;21.86;53.50
35704;BME280;21820;51.112;13.762;2023-02-02T08:05:58;99303.81;;;21.82;53.19
35704;BME280;21820;51.112;13.762;2023-02-02T08:08:24;99306.44;;;21.82;53.43
35704;BME280;21820;51.112;13.762;2023-02-02T08:10:53;99309.34;;;21.79;53.31
35704;BME280;21820;51.112;13.762;2023-02-02T08:13:19;99317.50;;;21.76;53.23
35704;BME280;21820;51.112;13.762;2023-02-02T08:15:45;99315.28;;;21.81;52.89
35704;BME280;21820;51.112;13.762;2023-02-02T08:18:10;99324.06;;;21.80;53.55
35704;BME280;21820;51.112;13.762;2023-02-02T08:20:36;99316.22;;;21.80;53.72
35704;BME280;21820;51.112;13.762;2023-02-02T08:23:01;99322.44;;;21.79;53.37
35704;BME280;21820;51.112;13.762;2023-02-02T08:25:26;99320.78;;;21.78;53.63
35704;BME280;21820;51.112;13.762;2023-02-02T08:27:53;99330.97;;;21.81;53.28
35704;BME280;21820;51.112;13.762;2023-02-02T08:30:19;99341.56;;;21.80;53.00
35704;BME280;21820;51.112;13.762;2023-02-02T08:32:45;99345.00;;;21.80;53.43
35704;BME280;21820;51.112;13.762;2023-02-02T08:35:10;99345.31;;;21.77;53.40
35704;BME280;21820;51.112;13.762;2023-02-02T08:37:36;99342.09;;;21.83;53.62
35704;BME280;21820;51.112;13.762;2023-02-02T08:40:01;99341.72;;;21.78;53.78
35704;BME280;21820;51.112;13.762;2023-02-02T08:42:27;99342.69;;;21.77;53.51
35704;BME280;21820;51.112;13.762;2023-02-02T08:44:52;99342.28;;;21.72;53.34
35704;BME280;21820;51.112;13.762;2023-02-02T08:47:17;99351.75;;;21.73;53.90
35704;BME280;21820;51.112;13.762;2023-02-02T08:49:43;99334.63;;;21.61;53.70
35704;BME280;21820;51.112;13.762;2023-02-02T08:52:09;99342.28;;;21.72;53.69
35704;BME280;21820;51.112;13.762;2023-02-02T08:54:34;99359.91;;;21.70;53.35
35704;BME280;21820;51.112;13.762;2023-02-02T08:56:59;99357.59;;;21.67;53.84
35704;BME280;21820;51.112;13.762;2023-02-02T08:59:25;99363.78;;;21.66;53.85
35704;BME280;21820;51.112;13.762;2023-02-02T09:01:50;99367.50;;;21.64;54.18
35704;BME280;21820;51.112;13.762;2023-02-02T09:04:16;99356.25;;;21.63;54.11
35704;BME280;21820;51.112;13.762;2023-02-02T09:06:42;99369.69;;;21.68;53.45
35704;BME280;21820;51.112;13.762;2023-02-02T09:09:11;99376.03;;;21.66;53.89
35704;BME280;21820;51.112;13.762;2023-02-02T09:11:38;99366.72;;;21.63;54.00
35704;BME280;21820;51.112;13.762;2023-02-02T09:14:04;99384.59;;;21.68;53.52
35704;BME280;21820;51.112;13.762;2023-02-02T09:16:31;99382.66;;;21.60;54.37
35704;BME280;21820;51.112;13.762;2023-02-02T09:18:56;99369.75;;;21.59;53.67
35704;BME280;21820;51.112;13.762;2023-02-02T09:21:22;99394.91;;;21.69;53.80
35704;BME280;21820;51.112;13.762;2023-02-02T09:23:49;99389.28;;;21.64;53.74
35704;BME280;21820;51.112;13.762;2023-02-02T09:26:28;99389.56;;;21.61;53.63
35704;BME280;21820;51.112;13.762;2023-02-02T09:28:56;99392.34;;;21.60;53.89
35704;BME280;21820;51.112;13.762;2023-02-02T09:31:23;99393.44;;;21.57;53.91
35704;BME280;21820;51.112;13.762;2023-02-02T09:33:48;99398.66;;;21.57;53.89
35704;BME280;21820;51.112;13.762;2023-02-02T09:36:16;99402.13;;;21.58;54.17
35704;BME280;21820;51.112;13.762;2023-02-02T09:38:43;99404.88;;;21.56;54.32
35704;BME280;21820;51.112;13.762;2023-02-02T09:44:12;99412.56;;;21.58;54.23
35704;BME280;21820;51.112;13.762;2023-02-02T09:52:15;99439.09;;;21.72;53.56
35704;BME280;21820;51.112;13.762;2023-02-02T09:54:45;99428.06;;;21.78;52.87
35704;BME280;21820;51.112;13.762;2023-02-02T09:57:19;99416.69;;;21.60;53.47
35704;BME280;21820;51.112;13.762;2023-02-02T09:59:48;99409.41;;;21.54;53.46
35704;BME280;21820;51.112;13.762;2023-02-02T10:02:21;99434.72;;;21.63;53.51
35704;BME280;21820;51.112;13.762;2023-02-02T10:04:51;99439.97;;;21.63;54.16
35704;BME280;21820;51.112;13.762;2023-02-02T10:07:23;99436.97;;;21.58;54.00
35704;BME280;21820;51.112;13.762;2023-02-02T10:10:32;99441.66;;;21.55;54.12
35704;BME280;21820;51.112;13.762;2023-02-02T10:13:05;99435.56;;;21.54;53.80
35704;BME280;21820;51.112;13.762;2023-02-02T10:15:36;99431.97;;;21.55;53.80
35704;BME280;21820;51.112;13.762;2023-02-02T10:18:21;99436.56;;;21.53;54.06
35704;BME280;21820;51.112;13.762;2023-02-02T10:23:58;99441.66;;;21.55;54.51
35704;BME280;21820;51.112;13.762;2023-02-02T10:26:36;99432.84;;;21.46;53.95
35704;BME280;21820;51.112;13.762;2023-02-02T10:45:56;99451.28;;;21.54;54.18
35704;BME280;21820;51.112;13.762;2023-02-02T10:48:25;99449.34;;;21.56;54.18
35704;BME280;21820;51.112;13.762;2023-02-02T10:50:59;99454.88;;;21.53;54.33
35704;BME280;21820;51.112;13.762;2023-02-02T10:53:28;99442.47;;;21.46;54.14
35704;BME280;21820;51.112;13.762;2023-02-02T10:56:12;99454.88;;;21.53;54.27
35704;BME280;21820;51.112;13.762;2023-02-02T10:58:49;99449.94;;;21.41;54.11
35704;BME280;21820;51.112;13.762;2023-02-02T11:01:17;99465.34;;;21.53;53.77
35704;BME280;21820;51.112;13.762;2023-02-02T11:03:46;99443.75;;;21.42;54.30
35704;BME280;21820;51.112;13.762;2023-02-02T11:06:12;99472.50;;;21.51;54.64
35704;BME280;21820;51.112;13.762;2023-02-02T11:08:56;99468.91;;;21.52;54.19
35704;BME280;21820;51.112;13.762;2023-02-02T11:11:37;99455.72;;;21.44;53.84
35704;BME280;21820;51.112;13.762;2023-02-02T11:16:40;99466.00;;;21.55;53.82
35704;BME280;21820;51.112;13.762;2023-02-02T11:21:55;99461.44;;;21.57;54.57
35704;BME280;21820;51.112;13.762;2023-02-02T11:24:40;99471.91;;;21.57;53.75
35704;BME280;21820;51.112;13.762;2023-02-02T11:27:15;99475.50;;;21.56;54.63
35704;BME280;21820;51.112;13.762;2023-02-02T11:29:44;99475.50;;;21.56;54.36
35704;BME280;21820;51.112;13.762;2023-02-02T11:37:26;99473.72;;;21.47;54.69
35704;BME280;21820;51.112;13.762;2023-02-02T11:39:52;99477.72;;;21.51;54.16
35704;BME280;21820;51.112;13.762;2023-02-02T11:42:20;99475.66;;;21.45;54.63
35704;BME280;21820;51.112;13.762;2023-02-02T11:44:49;99491.22;;;21.47;54.08
35704;BME280;21820;51.112;13.762;2023-02-02T11:47:25;99485.72;;;21.50;53.51
35704;BME280;21820;51.112;13.762;2023-02-02T11:49:52;99487.19;;;21.52;53.58
35704;BME280;21820;51.112;13.762;2023-02-02T11:52:24;99483.34;;;21.56;53.74
35704;BME280;21820;51.112;13.762;2023-02-02T11:54:52;99481.69;;;21.55;54.13
35704;BME280;21820;51.112;13.762;2023-02-02T11:57:22;99484.16;;;21.57;53.94
35704;BME280;21820;51.112;13.762;2023-02-02T11:59:50;99489.28;;;21.58;54.16
35704;BME280;21820;51.112;13.762;2023-02-02T12:04:44;99482.53;;;21.56;54.20
35704;BME280;21820;51.112;13.762;2023-02-02T12:07:28;99496.72;;;21.53;54.66
35704;BME280;21820;51.112;13.762;2023-02-02T12:10:00;99484.59;;;21.52;54.35
35704;BME280;21820;51.112;13.762;2023-02-02T12:44:25;99512.00;;;21.48;54.18
35704;BME280;21820;51.112;13.762;2023-02-02T12:49:57;99509.41;;;21.48;54.53
35704;BME280;21820;51.112;13.762;2023-02-02T13:06:14;99517.66;;;21.53;53.86
35704;BME280;21820;51.112;13.762;2023-02-02T13:09:05;99529.06;;;21.52;53.92
35704;BME280;21820;51.112;13.762;2023-02-02T13:11:53;99516.97;;;21.51;54.53
35704;BME280;21820;51.112;13.762;2023-02-02T13:14:25;99524.50;;;21.54;54.50
35704;BME280;21820;51.112;13.762;2023-02-02T13:16:58;99529.75;;;21.54;54.48
35704;BME280;21820;51.112;13.762;2023-02-02T13:19:34;99533.06;;;21.56;53.92
35704;BME280;21820;51.112;13.762;2023-02-02T13:22:03;99544.06;;;21.60;54.38
35704;BME280;21820;51.112;13.762;2023-02-02T13:24:33;99523.41;;;21.47;54.51
35704;BME280;21820;51.112;13.762;2023-02-02T13:27:00;99548.06;;;21.54;54.69
35704;BME280;21820;51.112;13.762;2023-02-02T13:29:38;99542.00;;;21.54;54.34
35704;BME280;21820;51.112;13.762;2023-02-02T13:32:24;99551.91;;;21.50;54.18
35704;BME280;21820;51.112;13.762;2023-02-02T13:34:58;99547.66;;;21.49;54.27
35704;BME280;21820;51.112;13.762;2023-02-02T13:37:34;99553.56;;;21.51;54.14
35704;BME280;21820;51.112;13.762;2023-02-02T13:56:45;99586.31;;;21.55;54.13
35704;BME280;21820;51.112;13.762;2023-02-02T14:01:52;99590.91;;;21.53;54.18
35704;BME280;21820;51.112;13.762;2023-02-02T14:04:20;99590.06;;;21.43;54.50
35704;BME280;21820;51.112;13.762;2023-02-02T14:06:54;99613.47;;;21.54;54.27
35704;BME280;21820;51.112;13.762;2023-02-02T14:09:24;99624.06;;;21.53;55.02
35704;BME280;21820;51.112;13.762;2023-02-02T14:11:59;99627.75;;;21.50;55.01
35704;BME280;21820;51.112;13.762;2023-02-02T14:14:25;99618.41;;;21.48;54.16
35704;BME280;21820;51.112;13.762;2023-02-02T14:22:03;99635.63;;;21.50;54.63
35704;BME280;21820;51.112;13.762;2023-02-02T14:27:00;99638.78;;;21.54;54.29
35704;BME280;21820;51.112;13.762;2023-02-02T14:34:51;99651.06;;;21.53;54.77
35704;BME280;21820;51.112;13.762;2023-02-02T14:48:09;99655.75;;;21.50;54.62
35704;BME280;21820;51.112;13.762;2023-02-02T14:53:14;99674.31;;;21.56;54.83
35704;BME280;21820;51.112;13.762;2023-02-02T14:56:17;99673.06;;;21.41;54.33
35704;BME280;21820;51.112;13.762;2023-02-02T14:59:11;99679.94;;;21.42;54.54
35704;BME280;21820;51.112;13.762;2023-02-02T15:01:34;99681.75;;;21.51;54.26
35704;BME280;21820;51.112;13.762;2023-02-02T15:06:46;99695.53;;;21.53;53.89
35704;BME280;21820;51.112;13.762;2023-02-02T15:22:35;99714.94;;;21.60;54.68
35704;BME280;21820;51.112;13.762;2023-02-02T15:25:12;99729.97;;;21.58;54.63
35704;BME280;21820;51.112;13.762;2023-02-02T15:27:45;99728.44;;;21.56;54.53
35704;BME280;21820;51.112;13.762;2023-02-02T15:30:15;99711.75;;;21.47;54.18
35704;BME280;21820;51.112;13.762;2023-02-02T15:32:42;99754.44;;;21.57;54.60
35704;BME280;21820;51.112;13.762;2023-02-02T15:35:20;99760.09;;;21.53;54.10
35704;BME280;21820;51.112;13.762;2023-02-02T15:37:52;99772.06;;;21.55;54.58
35704;BME280;21820;51.112;13.762;2023-02-02T15:40:22;99776.63;;;21.53;54.62
35704;BME280;21820;51.112;13.762;2023-02-02T15:42:52;99789.00;;;21.51;54.40
35704;BME280;21820;51.112;13.762;2023-02-02T15:48:22;99781.69;;;21.45;54.75
35704;BME280;21820;51.112;13.762;2023-02-02T15:50:50;99779.75;;;21.47;54.69
35704;BME280;21820;51.112;13.762;2023-02-02T15:53:22;99782.81;;;21.52;54.29
35704;BME280;21820;51.112;13.762;2023-02-02T15:55:48;99778.53;;;21.42;54.28
35704;BME280;21820;51.112;13.762;2023-02-02T15:58:40;99810.63;;;21.53;54.60
35704;BME280;21820;51.112;13.762;2023-02-02T16:01:17;99830.19;;;21.59;54.55